Time;durP1;ratioP1;P1;durP2;ratioP2;P2;SDS_P1;SDS_P2;PMS_P1;PMS_P2;Temp;Humidity;BMP_temperature;BMP_pressure;BME280_temperature;BME280_humidity;BME280_pressure;Samples;Min_cycle;Max_cycle;Signal;HPM_P1;HPM_P2
2023/09/17 00:14:43;;;;;;;15.70;8.63;;;;;;;;;;10499265;22;20069;-94
2023/09/17 01:00:40;;;;;;;14.75;8.82;;;;;;;;;;10372181;22;20476;-94
2023/09/17 04:30:18;;;;;;;38.90;13.50;;;;;;;;;;10458834;22;20087;-96
2023/09/17 05:17:17;;;;;;;30.13;16.13;;;;;;;;;;10421570;22;20050;-95
2023/09/17 05:33:23;;;;;;;26.13;15.73;;;;;;;;;;10476157;22;20143;-95
2023/09/17 06:56:40;;;;;;;7.90;5.32;;;;;;;;;;10290323;22;20996;-94
2023/09/17 07:58:52;;;;;;;6.10;4.50;;;;;;;;;;10232409;22;4624963;-93
2023/09/17 08:02:55;;;;;;;8.68;6.32;;;;;;;;;;10434570;22;20074;-96
2023/09/17 08:30:11;;;;;;;5.40;3.78;;;;;;;;;;10427164;22;20033;-94
2023/09/17 08:39:18;;;;;;;6.28;3.95;;;;;;;;;;10380357;22;20051;-94
2023/09/17 09:48:50;;;;;;;5.22;3.05;;;;;;;;;;10449679;22;20064;-93
2023/09/17 09:53:24;;;;;;;4.25;3.08;;;;;;;;;;10510248;22;20122;-93
2023/09/17 09:57:30;;;;;;;3.38;2.70;;;;;;;;;;10509347;22;20023;-91
2023/09/17 10:01:37;;;;;;;4.10;2.60;;;;;;;;;;10463892;22;20019;-93
2023/09/17 10:11:58;;;;;;;4.95;2.70;;;;;;;;;;10463054;22;20084;-93
2023/09/17 10:27:41;;;;;;;4.68;3.10;;;;;;;;;;10484965;22;20159;-94
2023/09/17 10:42:02;;;;;;;7.28;3.83;;;;;;;;;;10485567;22;20100;-92
2023/09/17 10:46:09;;;;;;;5.97;4.07;;;;;;;;;;10501617;22;20046;-92
2023/09/17 10:56:17;;;;;;;6.50;3.95;;;;;;;;;;10273784;23;20032;-92
2023/09/17 11:24:57;;;;;;;5.80;4.13;;;;;;;;;;10300840;22;20361;-95
2023/09/17 12:05:04;;;;;;;5.25;3.00;;;;;;;;;;10435353;22;20030;-96
2023/09/17 12:14:26;;;;;;;6.32;3.72;;;;;;;;;;10401931;22;20033;-91
2023/09/17 12:18:31;;;;;;;4.53;3.05;;;;;;;;;;10538616;22;20015;-93
2023/09/17 12:37:50;;;;;;;3.67;2.97;;;;;;;;;;10502950;22;20453;-90
2023/09/17 12:48:04;;;;;;;5.53;2.85;;;;;;;;;;10472415;22;20029;-93
2023/09/17 13:02:35;;;;;;;4.90;3.30;;;;;;;;;;10489862;22;20100;-93
2023/09/17 13:06:43;;;;;;;4.07;3.10;;;;;;;;;;10450643;22;20037;-92
2023/09/17 13:11:18;;;;;;;4.20;3.15;;;;;;;;;;10474058;22;20034;-95
2023/09/17 13:25:52;;;;;;;4.53;3.30;;;;;;;;;;10214455;23;20053;-95
2023/09/17 13:30:27;;;;;;;6.05;3.50;;;;;;;;;;10190531;23;20032;-96
2023/09/17 13:35:15;;;;;;;8.05;3.33;;;;;;;;;;10230192;23;20040;-94
2023/09/17 13:39:56;;;;;;;4.00;3.33;;;;;;;;;;9934697;23;20246;-93
2023/09/17 13:44:00;;;;;;;5.18;3.60;;;;;;;;;;10101454;23;20033;-94
2023/09/17 13:48:05;;;;;;;5.50;3.58;;;;;;;;;;10028065;23;20070;-93
2023/09/17 13:52:12;;;;;;;5.32;3.47;;;;;;;;;;10105791;23;20086;-94
2023/09/17 13:56:19;;;;;;;6.68;3.58;;;;;;;;;;10221894;22;20081;-92
2023/09/17 14:00:24;;;;;;;4.40;3.40;;;;;;;;;;10239462;23;20550;-93
2023/09/17 14:04:28;;;;;;;4.80;3.40;;;;;;;;;;10221977;23;20032;-94
2023/09/17 14:08:34;;;;;;;6.70;3.83;;;;;;;;;;10224633;23;20047;-92
2023/09/17 14:12:39;;;;;;;4.97;3.70;;;;;;;;;;10224431;23;20025;-93
2023/09/17 14:17:19;;;;;;;4.43;3.15;;;;;;;;;;10228255;23;20025;-95
2023/09/17 14:21:25;;;;;;;4.93;3.33;;;;;;;;;;10225640;23;20025;-93
2023/09/17 14:25:30;;;;;;;4.07;3.10;;;;;;;;;;10225889;23;20025;-91
2023/09/17 14:30:00;;;;;;;4.55;3.35;;;;;;;;;;10224362;23;20326;-93
2023/09/17 14:34:03;;;;;;;4.45;3.38;;;;;;;;;;10221196;23;20437;-92
2023/09/17 14:38:07;;;;;;;4.88;3.58;;;;;;;;;;10225778;23;20108;-93
2023/09/17 14:42:12;;;;;;;6.15;3.63;;;;;;;;;;10225637;23;20025;-93
2023/09/17 14:46:18;;;;;;;4.15;3.38;;;;;;;;;;10224959;23;20017;-96
2023/09/17 14:50:34;;;;;;;4.78;3.45;;;;;;;;;;10241393;23;20070;-94
2023/09/17 14:54:37;;;;;;;5.05;3.50;;;;;;;;;;10225674;23;20028;-93
2023/09/17 15:04:37;;;;;;;6.47;3.92;;;;;;;;;;9884622;24;20034;-93
2023/09/17 15:59:30;;;;;;;6.03;4.28;;;;;;;;;;10387494;22;20023;-92
2023/09/17 16:03:35;;;;;;;7.03;4.25;;;;;;;;;;10484927;22;20023;-92
2023/09/17 16:07:58;;;;;;;6.35;4.22;;;;;;;;;;10493808;22;20026;-93
2023/09/17 16:12:05;;;;;;;7.20;4.53;;;;;;;;;;10495145;22;20050;-93
2023/09/17 16:16:13;;;;;;;7.75;5.43;;;;;;;;;;10508226;22;20064;-92
2023/09/17 16:20:40;;;;;;;7.38;4.60;;;;;;;;;;10490197;22;20042;-93
2023/09/17 16:34:04;;;;;;;7.57;5.60;;;;;;;;;;10494045;22;20002;-91
2023/09/17 16:38:15;;;;;;;7.80;5.72;;;;;;;;;;10496659;22;20041;-90
2023/09/17 16:42:26;;;;;;;11.02;6.32;;;;;;;;;;10513674;22;20029;-91
2023/09/17 16:46:40;;;;;;;8.35;5.25;;;;;;;;;;10514866;22;20097;-94
2023/09/17 16:50:51;;;;;;;6.57;5.07;;;;;;;;;;10512471;22;20442;-91
2023/09/17 16:54:55;;;;;;;9.07;5.00;;;;;;;;;;10492634;22;20458;-91
2023/09/17 16:59:03;;;;;;;8.90;5.43;;;;;;;;;;10497831;22;20091;-92
2023/09/17 17:03:08;;;;;;;10.45;5.13;;;;;;;;;;10514488;22;20018;-90
2023/09/17 17:07:14;;;;;;;73.78;34.83;;;;;;;;;;10495360;22;20025;-91
2023/09/17 17:11:19;;;;;;;16.05;7.25;;;;;;;;;;10484104;22;20072;-90
2023/09/17 17:15:27;;;;;;;13.73;6.70;;;;;;;;;;10509120;22;20022;-91
2023/09/17 17:19:34;;;;;;;8.75;6.50;;;;;;;;;;10464444;22;20015;-93
2023/09/17 17:28:18;;;;;;;10.32;5.60;;;;;;;;;;10490406;22;20103;-91
2023/09/17 17:32:42;;;;;;;7.15;5.50;;;;;;;;;;10493199;22;20415;-95
2023/09/17 17:36:59;;;;;;;8.40;5.80;;;;;;;;;;10513343;22;20025;-91
2023/09/17 17:41:07;;;;;;;11.32;7.70;;;;;;;;;;10509470;22;20077;-93
2023/09/17 17:45:34;;;;;;;15.40;8.02;;;;;;;;;;10509877;22;20018;-92
2023/09/17 17:50:02;;;;;;;10.38;6.93;;;;;;;;;;10509480;22;20046;-92
2023/09/17 17:54:25;;;;;;;10.57;7.10;;;;;;;;;;10339379;22;20090;-92
2023/09/17 17:58:33;;;;;;;12.98;9.20;;;;;;;;;;10509538;22;20015;-96
2023/09/17 18:02:49;;;;;;;11.02;7.53;;;;;;;;;;10509583;22;20030;-92
2023/09/17 18:11:40;;;;;;;15.23;7.68;;;;;;;;;;10509347;22;20054;-93
2023/09/17 18:20:34;;;;;;;10.32;6.95;;;;;;;;;;10489138;22;20133;-92
2023/09/17 18:24:44;;;;;;;12.00;6.82;;;;;;;;;;10490754;22;20022;-93
2023/09/17 18:28:51;;;;;;;10.77;7.07;;;;;;;;;;10321756;22;20044;-94
2023/09/17 18:32:55;;;;;;;9.77;6.70;;;;;;;;;;10230742;23;20100;-94
2023/09/17 18:37:01;;;;;;;9.93;6.38;;;;;;;;;;10232463;23;20086;-91
2023/09/17 18:41:09;;;;;;;8.98;6.82;;;;;;;;;;10306339;22;20170;-92
2023/09/17 18:45:14;;;;;;;9.68;6.82;;;;;;;;;;10231613;23;20021;-92
2023/09/17 18:49:25;;;;;;;11.88;7.15;;;;;;;;;;10275721;22;20033;-91
2023/09/17 18:53:31;;;;;;;10.65;6.90;;;;;;;;;;10249200;22;20025;-92
2023/09/17 18:57:39;;;;;;;10.27;7.28;;;;;;;;;;10248870;23;20025;-93
2023/09/17 19:01:46;;;;;;;13.55;7.70;;;;;;;;;;10231620;23;20076;-91
2023/09/17 19:05:50;;;;;;;10.85;7.85;;;;;;;;;;10231800;22;20449;-93
2023/09/17 19:09:56;;;;;;;10.95;6.85;;;;;;;;;;10232265;23;20021;-90
2023/09/17 19:14:03;;;;;;;11.43;7.10;;;;;;;;;;10336904;22;20021;-91
2023/09/17 19:18:09;;;;;;;9.50;6.70;;;;;;;;;;10205452;23;20028;-91
2023/09/17 19:22:35;;;;;;;11.63;7.03;;;;;;;;;;10339263;22;20331;-91
2023/09/17 19:26:40;;;;;;;9.07;7.05;;;;;;;;;;10248975;23;20062;-92
2023/09/17 19:35:24;;;;;;;9.77;7.05;;;;;;;;;;10276856;23;20082;-91
2023/09/17 19:39:31;;;;;;;9.13;6.78;;;;;;;;;;10261040;23;20076;-91
2023/09/17 19:43:37;;;;;;;9.60;6.65;;;;;;;;;;10261187;23;20512;-92
2023/09/17 19:47:51;;;;;;;12.90;7.00;;;;;;;;;;10290248;22;20003;-92
2023/09/17 19:52:24;;;;;;;9.68;6.88;;;;;;;;;;10558099;22;20054;-94
2023/09/17 20:02:31;;;;;;;12.40;7.15;;;;;;;;;;10305688;22;20057;-91
2023/09/17 20:11:18;;;;;;;12.38;7.95;;;;;;;;;;10194760;23;20056;-93
2023/09/17 20:20:00;;;;;;;9.40;6.68;;;;;;;;;;10246732;23;20066;-95
2023/09/17 20:24:07;;;;;;;10.65;6.38;;;;;;;;;;10301144;23;20020;-91
2023/09/17 20:28:34;;;;;;;11.15;7.32;;;;;;;;;;10285034;23;20095;-91
2023/09/17 21:05:50;;;;;;;10.63;7.78;;;;;;;;;;10513929;22;20094;-91
2023/09/17 21:10:11;;;;;;;12.27;8.15;;;;;;;;;;10495309;22;20072;-91
2023/09/17 21:14:17;;;;;;;12.35;7.45;;;;;;;;;;10514207;22;20021;-91
2023/09/17 21:18:36;;;;;;;;;;;;;;;;;;10285544;23;20027;-91
2023/09/17 21:22:52;;;;;;;11.77;7.68;;;;;;;;;;10494556;22;20237;-91
2023/09/17 21:27:19;;;;;;;9.95;7.28;;;;;;;;;;10495583;22;20041;-91
2023/09/17 21:42:00;;;;;;;11.85;7.47;;;;;;;;;;10337767;23;20035;-92
2023/09/17 21:51:16;;;;;;;10.77;7.47;;;;;;;;;;10186825;23;20032;-94
2023/09/17 22:06:49;;;;;;;12.40;7.95;;;;;;;;;;10496541;22;20474;-90
2023/09/17 22:15:14;;;;;;;12.48;8.32;;;;;;;;;;10495783;22;20025;-91
2023/09/17 22:19:40;;;;;;;10.55;8.07;;;;;;;;;;10495891;22;20019;-91
2023/09/17 22:23:48;;;;;;;12.95;9.13;;;;;;;;;;10488618;22;20159;-91
2023/09/17 22:33:33;;;;;;;13.23;9.20;;;;;;;;;;10493915;22;20090;-90
2023/09/17 22:38:00;;;;;;;14.65;8.68;;;;;;;;;;10493765;22;20038;-90
2023/09/17 22:42:08;;;;;;;14.85;9.85;;;;;;;;;;10492733;22;20022;-90
2023/09/17 22:46:11;;;;;;;14.30;9.68;;;;;;;;;;10493499;22;20365;-89
2023/09/17 22:50:40;;;;;;;14.63;10.30;;;;;;;;;;10492764;22;20014;-92
2023/09/17 23:05:52;;;;;;;13.23;9.63;;;;;;;;;;10385157;22;20031;-91
2023/09/17 23:15:38;;;;;;;18.08;11.32;;;;;;;;;;10384638;22;20054;-92
2023/09/17 23:29:55;;;;;;;18.35;11.68;;;;;;;;;;10355824;22;20034;-91
2023/09/17 23:33:58;;;;;;;17.85;11.55;;;;;;;;;;10394814;22;20085;-92
2023/09/17 23:38:38;;;;;;;17.23;11.07;;;;;;;;;;10450667;22;20347;-94
2023/09/17 23:42:43;;;;;;;20.10;12.32;;;;;;;;;;10492107;22;20022;-90
2023/09/17 23:46:46;;;;;;;18.63;11.52;;;;;;;;;;10509745;22;20049;-92
2023/09/17 23:51:09;;;;;;;19.85;11.82;;;;;;;;;;10465132;22;20030;-90
2023/09/17 23:55:18;;;;;;;17.65;11.40;;;;;;;;;;10491014;22;20087;-90
2023/09/17 23:59:23;;;;;;;20.30;11.98;;;;;;;;;;10490418;22;20015;-90
